Aviation Digital Data Service (ADDS)

Output produced by METARs form (1054 UTC 30 March 2017)
found at http://aviationweather.gov/adds/metars/
 
KDET 300521Z 3006/3106 05007KT P6SM SCT060 OVC090 
     FM301000 05010KT P6SM OVC060 
     FM301200 06012G18KT P6SM -RA SCT025 OVC040 
     FM301400 07014G23KT 5SM -RA SCT012 OVC025 
     FM301700 06013G23KT 3SM RA SCT008 OVC012 
     FM302100 07012KT 3SM -RA BR OVC008 
     FM310200 08008KT 2SM -RA BR OVC005